Terminal Aerodrome Forecast
Issued by NWS Louisville, KY

Home | Current Version | Previous Version | Text Only | Print | Product List | Glossary On
Versions: 1 2 3 4 5 6 7 8 9 10 11 12 13 14 15 16
000
FTUS43 KLMK 240500
TAFBWG
TAF
KBWG 240538Z 2406/2506 VRB06KT P6SM VCSH SCT025 OVC090
      TEMPO 2407/2411 16007KT 5SM -SHRA BKN012
     FM241100 19008KT 3SM BR VCTS BKN008CB
     FM241600 22012G17KT P6SM VCSH BKN012
     FM241900 24013G20KT P6SM VCSH BKN020
     FM242300 24011KT P6SM BKN015=

USA.gov is the U.S. government's official web portal to all federal, state and local government web resources and services.